sensor_id;sensor_type;location;lat;lon;timestamp;pressure;altitude;pressure_sealevel;temperature;humidity
26823;BME280;14852;51.910;8.878;2023-05-24T00:01:47;100414.25;;;10.15;52.60
26823;BME280;14852;51.910;8.878;2023-05-24T00:04:13;100417.00;;;10.10;53.01
26823;BME280;14852;51.910;8.878;2023-05-24T00:06:40;100412.97;;;10.03;52.97
26823;BME280;14852;51.910;8.878;2023-05-24T00:09:07;100407.94;;;9.99;53.06
26823;BME280;14852;51.910;8.878;2023-05-24T00:11:33;100411.63;;;9.93;53.06
26823;BME280;14852;51.910;8.878;2023-05-24T00:13:58;100405.94;;;9.84;53.16
26823;BME280;14852;51.910;8.878;2023-05-24T00:16:24;100412.44;;;9.72;53.41
26823;BME280;14852;51.910;8.878;2023-05-24T00:18:52;100411.06;;;9.63;53.25
26823;BME280;14852;51.910;8.878;2023-05-24T00:21:19;100413.97;;;9.56;53.68
26823;BME280;14852;51.910;8.878;2023-05-24T00:23:45;100418.41;;;9.52;53.72
26823;BME280;14852;51.910;8.878;2023-05-24T00:26:12;100417.63;;;9.50;53.65
26823;BME280;14852;51.910;8.878;2023-05-24T00:28:41;100416.78;;;9.50;53.83
26823;BME280;14852;51.910;8.878;2023-05-24T00:31:07;100419.38;;;9.50;53.76
26823;BME280;14852;51.910;8.878;2023-05-24T00:33:33;100409.09;;;9.47;53.89
26823;BME280;14852;51.910;8.878;2023-05-24T00:35:58;100409.28;;;9.42;54.17
26823;BME280;14852;51.910;8.878;2023-05-24T00:38:25;100405.91;;;9.40;54.11
26823;BME280;14852;51.910;8.878;2023-05-24T00:40:53;100407.69;;;9.38;54.15
26823;BME280;14852;51.910;8.878;2023-05-24T00:43:22;100395.69;;;9.35;54.04
26823;BME280;14852;51.910;8.878;2023-05-24T00:45:52;100399.25;;;9.33;54.37
26823;BME280;14852;51.910;8.878;2023-05-24T00:48:25;100391.63;;;9.28;54.08
26823;BME280;14852;51.910;8.878;2023-05-24T00:50:53;100396.03;;;9.26;54.24
26823;BME280;14852;51.910;8.878;2023-05-24T00:53:20;100398.66;;;9.25;54.57
26823;BME280;14852;51.910;8.878;2023-05-24T00:55:46;100396.22;;;9.22;54.42
26823;BME280;14852;51.910;8.878;2023-05-24T00:58:12;100395.31;;;9.23;54.38
26823;BME280;14852;51.910;8.878;2023-05-24T01:00:42;100398.66;;;9.25;54.46
26823;BME280;14852;51.910;8.878;2023-05-24T01:03:08;100392.59;;;9.26;54.63
26823;BME280;14852;51.910;8.878;2023-05-24T01:05:35;100390.78;;;9.28;54.52
26823;BME280;14852;51.910;8.878;2023-05-24T01:18:06;100381.06;;;9.11;54.90
26823;BME280;14852;51.910;8.878;2023-05-24T01:20:36;100383.06;;;9.03;54.65
26823;BME280;14852;51.910;8.878;2023-05-24T01:27:06;100377.16;;;8.99;54.98
26823;BME280;14852;51.910;8.878;2023-05-24T01:29:35;100375.50;;;8.97;54.53
26823;BME280;14852;51.910;8.878;2023-05-24T01:32:01;100373.03;;;8.94;54.98
26823;BME280;14852;51.910;8.878;2023-05-24T01:34:28;100370.44;;;8.94;55.03
26823;BME280;14852;51.910;8.878;2023-05-24T01:36:53;100366.16;;;8.93;54.84
26823;BME280;14852;51.910;8.878;2023-05-24T01:39:20;100379.16;;;8.91;55.22
26823;BME280;14852;51.910;8.878;2023-05-24T01:49:55;100377.97;;;9.00;55.34
26823;BME280;14852;51.910;8.878;2023-05-24T01:52:27;100366.84;;;8.98;55.20
26823;BME280;14852;51.910;8.878;2023-05-24T01:54:56;100366.09;;;8.94;55.27
26823;BME280;14852;51.910;8.878;2023-05-24T01:57:22;100368.78;;;8.91;55.47
26823;BME280;14852;51.910;8.878;2023-05-24T01:59:49;100362.88;;;8.88;55.52
26823;BME280;14852;51.910;8.878;2023-05-24T02:02:16;100364.63;;;8.87;55.49
26823;BME280;14852;51.910;8.878;2023-05-24T02:04:42;100357.72;;;8.88;55.60
26823;BME280;14852;51.910;8.878;2023-05-24T02:07:08;100350.78;;;8.88;55.35
26823;BME280;14852;51.910;8.878;2023-05-24T02:09:36;100351.53;;;8.90;55.45
26823;BME280;14852;51.910;8.878;2023-05-24T02:12:02;100355.78;;;8.93;55.79
26823;BME280;14852;51.910;8.878;2023-05-24T02:14:28;100343.66;;;8.93;55.62
26823;BME280;14852;51.910;8.878;2023-05-24T02:16:54;100355.69;;;8.96;55.70
26823;BME280;14852;51.910;8.878;2023-05-24T02:19:23;100357.38;;;8.97;55.40
26823;BME280;14852;51.910;8.878;2023-05-24T02:21:49;100351.38;;;8.95;55.68
26823;BME280;14852;51.910;8.878;2023-05-24T02:24:16;100360.06;;;8.94;55.57
26823;BME280;14852;51.910;8.878;2023-05-24T02:26:43;100348.91;;;8.92;55.91
26823;BME280;14852;51.910;8.878;2023-05-24T02:29:09;100352.25;;;8.95;55.62
26823;BME280;14852;51.910;8.878;2023-05-24T02:31:35;100343.56;;;8.96;55.83
26823;BME280;14852;51.910;8.878;2023-05-24T02:34:02;100346.22;;;8.95;56.07
26823;BME280;14852;51.910;8.878;2023-05-24T02:36:27;100346.25;;;8.93;55.78
26823;BME280;14852;51.910;8.878;2023-05-24T02:38:53;100346.25;;;8.93;55.96
26823;BME280;14852;51.910;8.878;2023-05-24T02:41:19;100341.06;;;8.93;55.94
26823;BME280;14852;51.910;8.878;2023-05-24T02:43:46;100353.13;;;8.94;55.82
26823;BME280;14852;51.910;8.878;2023-05-24T02:46:13;100355.69;;;8.96;56.09
26823;BME280;14852;51.910;8.878;2023-05-24T02:48:39;100354.78;;;8.97;56.12
26823;BME280;14852;51.910;8.878;2023-05-24T02:51:05;100353.03;;;8.97;56.06
26823;BME280;14852;51.910;8.878;2023-05-24T02:53:32;100351.34;;;8.96;56.33
26823;BME280;14852;51.910;8.878;2023-05-24T02:55:58;100343.66;;;8.93;56.17
26823;BME280;14852;51.910;8.878;2023-05-24T02:58:24;100356.69;;;8.92;56.16
26823;BME280;14852;51.910;8.878;2023-05-24T03:00:53;100343.78;;;8.90;56.54
26823;BME280;14852;51.910;8.878;2023-05-24T03:03:20;100344.56;;;8.92;56.54
26823;BME280;14852;51.910;8.878;2023-05-24T03:05:46;100353.94;;;8.96;56.31
26823;BME280;14852;51.910;8.878;2023-05-24T03:08:12;100350.31;;;9.00;56.01
26823;BME280;14852;51.910;8.878;2023-05-24T03:10:38;100352.59;;;9.10;56.21
26823;BME280;14852;51.910;8.878;2023-05-24T03:13:05;100358.22;;;9.21;55.78
26823;BME280;14852;51.910;8.878;2023-05-24T03:15:31;100353.47;;;9.32;55.81
26823;BME280;14852;51.910;8.878;2023-05-24T03:17:57;100354.97;;;9.37;55.82
26823;BME280;14852;51.910;8.878;2023-05-24T03:20:23;100347.88;;;9.42;55.75
26823;BME280;14852;51.910;8.878;2023-05-24T03:22:50;100352.88;;;9.47;55.72
26823;BME280;14852;51.910;8.878;2023-05-24T03:25:16;100350.22;;;9.49;55.94
26823;BME280;14852;51.910;8.878;2023-05-24T03:27:41;100351.06;;;9.49;55.76
26823;BME280;14852;51.910;8.878;2023-05-24T03:30:08;100356.31;;;9.48;56.06
26823;BME280;14852;51.910;8.878;2023-05-24T03:32:42;100371.13;;;9.46;55.92
26823;BME280;14852;51.910;8.878;2023-05-24T03:35:08;100360.78;;;9.44;56.37
26823;BME280;14852;51.910;8.878;2023-05-24T03:37:37;100364.28;;;9.43;56.37
26823;BME280;14852;51.910;8.878;2023-05-24T03:40:03;100366.03;;;9.42;56.62
26823;BME280;14852;51.910;8.878;2023-05-24T03:42:52;100356.50;;;9.43;56.52
26823;BME280;14852;51.910;8.878;2023-05-24T03:45:22;100358.91;;;9.48;56.38
26823;BME280;14852;51.910;8.878;2023-05-24T03:47:49;100361.41;;;9.51;56.29
26823;BME280;14852;51.910;8.878;2023-05-24T03:50:15;100360.44;;;9.53;56.34
26823;BME280;14852;51.910;8.878;2023-05-24T03:52:41;100352.47;;;9.58;56.33
26823;BME280;14852;51.910;8.878;2023-05-24T03:55:07;100358.44;;;9.60;56.64
26823;BME280;14852;51.910;8.878;2023-05-24T03:57:34;100357.44;;;9.64;56.21
26823;BME280;14852;51.910;8.878;2023-05-24T04:00:00;100360.63;;;9.70;56.35
26823;BME280;14852;51.910;8.878;2023-05-24T04:02:27;100349.09;;;9.77;56.17
26823;BME280;14852;51.910;8.878;2023-05-24T04:04:53;100356.56;;;9.85;56.59
26823;BME280;14852;51.910;8.878;2023-05-24T04:07:18;100348.56;;;9.91;56.59
26823;BME280;14852;51.910;8.878;2023-05-24T04:09:45;100342.25;;;9.97;56.35
26823;BME280;14852;51.910;8.878;2023-05-24T04:12:11;100344.63;;;10.03;56.28
26823;BME280;14852;51.910;8.878;2023-05-24T04:14:40;100352.09;;;10.10;56.34
26823;BME280;14852;51.910;8.878;2023-05-24T04:17:06;100350.97;;;10.16;56.11
26823;BME280;14852;51.910;8.878;2023-05-24T04:19:32;100356.88;;;10.21;56.62
26823;BME280;14852;51.910;8.878;2023-05-24T04:21:58;100353.03;;;10.30;56.44
26823;BME280;14852;51.910;8.878;2023-05-24T04:24:24;100353.44;;;10.41;56.54
26823;BME280;14852;51.910;8.878;2023-05-24T04:26:50;100352.78;;;10.56;56.14
26823;BME280;14852;51.910;8.878;2023-05-24T04:29:16;100343.63;;;10.68;55.80
26823;BME280;14852;51.910;8.878;2023-05-24T04:31:43;100347.50;;;10.78;55.76
26823;BME280;14852;51.910;8.878;2023-05-24T04:34:10;100346.97;;;10.90;55.92
26823;BME280;14852;51.910;8.878;2023-05-24T04:36:38;100341.16;;;11.04;55.60
26823;BME280;14852;51.910;8.878;2023-05-24T04:39:07;100341.59;;;11.13;56.04
26823;BME280;14852;51.910;8.878;2023-05-24T04:41:33;100344.47;;;11.26;55.57
26823;BME280;14852;51.910;8.878;2023-05-24T04:44:02;100335.41;;;11.35;55.41
26823;BME280;14852;51.910;8.878;2023-05-24T04:46:27;100337.50;;;11.45;55.62
26823;BME280;14852;51.910;8.878;2023-05-24T04:48:53;100350.78;;;11.58;55.38
26823;BME280;14852;51.910;8.878;2023-05-24T04:51:21;100347.66;;;11.69;55.55
26823;BME280;14852;51.910;8.878;2023-05-24T04:53:46;100349.59;;;11.84;55.49
26823;BME280;14852;51.910;8.878;2023-05-24T04:56:12;100347.09;;;12.00;55.38
26823;BME280;14852;51.910;8.878;2023-05-24T04:58:41;100342.72;;;12.17;55.10
26823;BME280;14852;51.910;8.878;2023-05-24T05:01:07;100343.66;;;12.84;54.05
26823;BME280;14852;51.910;8.878;2023-05-24T05:03:33;100345.88;;;13.40;52.90
26823;BME280;14852;51.910;8.878;2023-05-24T05:05:58;100346.41;;;14.08;51.40
26823;BME280;14852;51.910;8.878;2023-05-24T05:08:24;100345.44;;;14.25;50.92
26823;BME280;14852;51.910;8.878;2023-05-24T05:10:50;100341.44;;;14.03;51.46
26823;BME280;14852;51.910;8.878;2023-05-24T05:13:16;100346.75;;;13.72;52.63
26823;BME280;14852;51.910;8.878;2023-05-24T05:15:41;100343.78;;;13.62;53.09
26823;BME280;14852;51.910;8.878;2023-05-24T05:18:08;100349.16;;;14.21;51.92
26823;BME280;14852;51.910;8.878;2023-05-24T05:20:33;100353.66;;;14.33;51.68
26823;BME280;14852;51.910;8.878;2023-05-24T05:22:59;100353.03;;;14.29;52.19
26823;BME280;14852;51.910;8.878;2023-05-24T05:25:25;100358.97;;;14.17;52.47
26823;BME280;14852;51.910;8.878;2023-05-24T05:27:50;100358.72;;;14.06;52.73
26823;BME280;14852;51.910;8.878;2023-05-24T05:30:16;100345.91;;;14.01;52.65
26823;BME280;14852;51.910;8.878;2023-05-24T05:32:42;100346.75;;;14.02;52.94
26823;BME280;14852;51.910;8.878;2023-05-24T05:35:08;100350.03;;;14.35;52.64
26823;BME280;14852;51.910;8.878;2023-05-24T05:37:34;100361.25;;;14.67;51.78
26823;BME280;14852;51.910;8.878;2023-05-24T05:40:00;100365.41;;;14.56;51.79
26823;BME280;14852;51.910;8.878;2023-05-24T05:42:25;100362.59;;;14.44;52.40
26823;BME280;14852;51.910;8.878;2023-05-24T05:44:51;100359.72;;;14.33;52.53
26823;BME280;14852;51.910;8.878;2023-05-24T05:47:17;100361.38;;;14.20;53.01
26823;BME280;14852;51.910;8.878;2023-05-24T05:49:43;100366.50;;;14.22;52.98
26823;BME280;14852;51.910;8.878;2023-05-24T05:52:08;100362.44;;;15.47;50.76
26823;BME280;14852;51.910;8.878;2023-05-24T05:54:34;100356.47;;;16.90;47.53
26823;BME280;14852;51.910;8.878;2023-05-24T05:57:00;100363.56;;;17.39;46.67
26823;BME280;14852;51.910;8.878;2023-05-24T05:59:26;100359.94;;;17.04;47.59
26823;BME280;14852;51.910;8.878;2023-05-24T06:01:51;100364.72;;;16.59;48.17
26823;BME280;14852;51.910;8.878;2023-05-24T06:04:17;100372.91;;;16.54;48.71
26823;BME280;14852;51.910;8.878;2023-05-24T06:06:43;100364.53;;;16.62;48.73
26823;BME280;14852;51.910;8.878;2023-05-24T06:09:14;100370.91;;;16.58;49.07
26823;BME280;14852;51.910;8.878;2023-05-24T06:11:41;100376.91;;;16.60;49.14
26823;BME280;14852;51.910;8.878;2023-05-24T06:14:10;100377.22;;;16.55;49.29
26823;BME280;14852;51.910;8.878;2023-05-24T06:16:37;100374.38;;;16.46;49.28
26823;BME280;14852;51.910;8.878;2023-05-24T06:19:06;100369.03;;;17.23;48.39
26823;BME280;14852;51.910;8.878;2023-05-24T06:21:32;100363.03;;;18.53;45.69
26823;BME280;14852;51.910;8.878;2023-05-24T06:23:58;100349.13;;;19.85;43.01
26823;BME280;14852;51.910;8.878;2023-05-24T06:26:24;100347.66;;;20.03;42.68
26823;BME280;14852;51.910;8.878;2023-05-24T06:28:51;100343.16;;;20.15;42.76
26823;BME280;14852;51.910;8.878;2023-05-24T06:31:17;100348.19;;;20.80;42.01
26823;BME280;14852;51.910;8.878;2023-05-24T06:33:42;100347.19;;;21.33;41.14
26823;BME280;14852;51.910;8.878;2023-05-24T06:36:09;100341.72;;;21.93;40.49
26823;BME280;14852;51.910;8.878;2023-05-24T06:38:34;100344.13;;;22.06;40.16
26823;BME280;14852;51.910;8.878;2023-05-24T06:41:01;100338.56;;;22.38;40.02
26823;BME280;14852;51.910;8.878;2023-05-24T06:43:26;100351.97;;;21.58;41.22
26823;BME280;14852;51.910;8.878;2023-05-24T06:45:53;100356.00;;;20.61;42.97
26823;BME280;14852;51.910;8.878;2023-05-24T06:48:19;100365.09;;;19.83;44.12
26823;BME280;14852;51.910;8.878;2023-05-24T06:50:44;100366.00;;;19.28;45.52
26823;BME280;14852;51.910;8.878;2023-05-24T06:53:10;100364.31;;;18.94;46.21
26823;BME280;14852;51.910;8.878;2023-05-24T06:55:36;100367.53;;;18.75;46.49
26823;BME280;14852;51.910;8.878;2023-05-24T06:58:02;100370.59;;;18.58;46.25
26823;BME280;14852;51.910;8.878;2023-05-24T07:00:28;100374.38;;;18.42;46.45
26823;BME280;14852;51.910;8.878;2023-05-24T07:02:54;100368.94;;;18.22;46.77
26823;BME280;14852;51.910;8.878;2023-05-24T07:05:20;100377.53;;;18.00;47.33
26823;BME280;14852;51.910;8.878;2023-05-24T07:07:46;100386.72;;;17.70;47.47
26823;BME280;14852;51.910;8.878;2023-05-24T07:10:12;100396.84;;;17.51;47.92
26823;BME280;14852;51.910;8.878;2023-05-24T07:12:38;100396.66;;;17.42;47.82
26823;BME280;14852;51.910;8.878;2023-05-24T07:15:05;100392.25;;;17.29;48.20
26823;BME280;14852;51.910;8.878;2023-05-24T07:17:31;100400.63;;;17.47;47.87
26823;BME280;14852;51.910;8.878;2023-05-24T07:19:59;100387.72;;;18.04;47.08
26823;BME280;14852;51.910;8.878;2023-05-24T07:22:25;100379.44;;;18.22;46.24
26823;BME280;14852;51.910;8.878;2023-05-24T07:24:53;100397.25;;;18.18;45.95
26823;BME280;14852;51.910;8.878;2023-05-24T07:27:19;100399.88;;;17.94;46.39
26823;BME280;14852;51.910;8.878;2023-05-24T07:29:45;100396.91;;;17.62;47.50
26823;BME280;14852;51.910;8.878;2023-05-24T07:32:11;100393.19;;;17.41;47.83
26823;BME280;14852;51.910;8.878;2023-05-24T07:34:37;100398.34;;;17.30;48.03
26823;BME280;14852;51.910;8.878;2023-05-24T07:37:04;100398.25;;;17.19;47.71
26823;BME280;14852;51.910;8.878;2023-05-24T07:39:29;100388.47;;;18.65;45.41
26823;BME280;14852;51.910;8.878;2023-05-24T07:41:55;100379.16;;;19.73;43.15
26823;BME280;14852;51.910;8.878;2023-05-24T07:44:21;100380.59;;;19.43;43.50
26823;BME280;14852;51.910;8.878;2023-05-24T07:46:48;100378.81;;;18.99;44.16
26823;BME280;14852;51.910;8.878;2023-05-24T07:49:14;100389.09;;;18.80;44.78
26823;BME280;14852;51.910;8.878;2023-05-24T07:51:40;100383.56;;;18.83;44.40
26823;BME280;14852;51.910;8.878;2023-05-24T07:54:06;100378.81;;;18.99;44.36
26823;BME280;14852;51.910;8.878;2023-05-24T07:56:32;100381.34;;;19.12;44.46
26823;BME280;14852;51.910;8.878;2023-05-24T07:58:58;100386.97;;;19.18;44.51
26823;BME280;14852;51.910;8.878;2023-05-24T08:01:33;100381.66;;;20.49;42.33
26823;BME280;14852;51.910;8.878;2023-05-24T08:04:02;100378.34;;;21.88;39.09
26823;BME280;14852;51.910;8.878;2023-05-24T08:06:29;100376.66;;;23.58;37.14
26823;BME280;14852;51.910;8.878;2023-05-24T08:08:56;100370.53;;;23.47;36.80
26823;BME280;14852;51.910;8.878;2023-05-24T08:11:22;100375.88;;;22.06;39.02
26823;BME280;14852;51.910;8.878;2023-05-24T08:13:47;100384.97;;;20.93;40.78
26823;BME280;14852;51.910;8.878;2023-05-24T08:16:13;100383.84;;;20.01;42.23
26823;BME280;14852;51.910;8.878;2023-05-24T08:18:39;100381.22;;;19.36;44.12
26823;BME280;14852;51.910;8.878;2023-05-24T08:21:05;100383.13;;;19.00;44.70
26823;BME280;14852;51.910;8.878;2023-05-24T08:23:31;100390.63;;;18.71;44.99
26823;BME280;14852;51.910;8.878;2023-05-24T08:25:58;100393.88;;;18.51;45.12
26823;BME280;14852;51.910;8.878;2023-05-24T08:28:25;100388.72;;;18.38;45.57
26823;BME280;14852;51.910;8.878;2023-05-24T08:30:51;100386.44;;;18.34;45.57
26823;BME280;14852;51.910;8.878;2023-05-24T08:33:17;100390.94;;;18.21;45.87
26823;BME280;14852;51.910;8.878;2023-05-24T08:35:43;100395.19;;;18.11;45.91
26823;BME280;14852;51.910;8.878;2023-05-24T08:38:08;100401.34;;;17.98;46.43
26823;BME280;14852;51.910;8.878;2023-05-24T08:40:34;100397.56;;;17.90;46.15
26823;BME280;14852;51.910;8.878;2023-05-24T08:43:01;100408.03;;;17.79;46.53
26823;BME280;14852;51.910;8.878;2023-05-24T08:45:29;100408.78;;;17.68;46.66
26823;BME280;14852;51.910;8.878;2023-05-24T08:47:57;100406.78;;;17.59;46.66
26823;BME280;14852;51.910;8.878;2023-05-24T08:50:23;100410.91;;;17.50;46.55
26823;BME280;14852;51.910;8.878;2023-05-24T08:52:50;100406.31;;;17.41;46.80
26823;BME280;14852;51.910;8.878;2023-05-24T08:55:17;100411.56;;;17.41;46.12
26823;BME280;14852;51.910;8.878;2023-05-24T08:57:44;100405.66;;;17.50;46.12
26823;BME280;14852;51.910;8.878;2023-05-24T09:00:11;100406.91;;;17.57;45.55
26823;BME280;14852;51.910;8.878;2023-05-24T09:02:40;100413.00;;;17.58;45.39
26823;BME280;14852;51.910;8.878;2023-05-24T09:05:12;100415.22;;;17.64;45.25
26823;BME280;14852;51.910;8.878;2023-05-24T09:07:42;100412.69;;;17.62;45.12
26823;BME280;14852;51.910;8.878;2023-05-24T09:10:09;100410.25;;;17.59;44.63
26823;BME280;14852;51.910;8.878;2023-05-24T09:12:43;100412.59;;;17.51;44.90
26823;BME280;14852;51.910;8.878;2023-05-24T09:15:10;100420.78;;;17.47;44.82
26823;BME280;14852;51.910;8.878;2023-05-24T09:17:37;100420.91;;;17.45;44.78
26823;BME280;14852;51.910;8.878;2023-05-24T09:20:06;100422.09;;;17.41;45.49
26823;BME280;14852;51.910;8.878;2023-05-24T09:22:36;100426.69;;;17.37;45.27
26823;BME280;14852;51.910;8.878;2023-05-24T09:25:05;100426.16;;;17.32;45.46
26823;BME280;14852;51.910;8.878;2023-05-24T09:27:33;100431.66;;;17.29;45.75
26823;BME280;14852;51.910;8.878;2023-05-24T09:29:59;100435.22;;;17.28;46.13
26823;BME280;14852;51.910;8.878;2023-05-24T09:32:26;100436.56;;;17.21;45.94
26823;BME280;14852;51.910;8.878;2023-05-24T09:34:57;100441.44;;;17.15;45.89
26823;BME280;14852;51.910;8.878;2023-05-24T09:37:25;100444.44;;;17.09;46.22
26823;BME280;14852;51.910;8.878;2023-05-24T09:39:52;100443.00;;;17.05;46.18
26823;BME280;14852;51.910;8.878;2023-05-24T09:42:24;100440.38;;;17.05;46.12
26823;BME280;14852;51.910;8.878;2023-05-24T09:45:02;100436.38;;;16.99;46.25
26823;BME280;14852;51.910;8.878;2023-05-24T09:47:32;100442.06;;;16.93;45.95
26823;BME280;14852;51.910;8.878;2023-05-24T09:50:00;100438.47;;;16.94;45.97
26823;BME280;14852;51.910;8.878;2023-05-24T09:52:26;100437.41;;;16.96;45.41
26823;BME280;14852;51.910;8.878;2023-05-24T09:54:53;100437.84;;;17.03;45.83
26823;BME280;14852;51.910;8.878;2023-05-24T09:57:19;100439.31;;;16.94;45.90
26823;BME280;14852;51.910;8.878;2023-05-24T09:59:49;100442.44;;;16.74;46.43
26823;BME280;14852;51.910;8.878;2023-05-24T10:02:15;100449.06;;;16.53;47.18
26823;BME280;14852;51.910;8.878;2023-05-24T10:04:44;100450.09;;;16.38;47.82
26823;BME280;14852;51.910;8.878;2023-05-24T10:07:11;100444.22;;;16.34;47.47
26823;BME280;14852;51.910;8.878;2023-05-24T10:09:37;100455.34;;;16.38;47.63
26823;BME280;14852;51.910;8.878;2023-05-24T10:12:05;100455.34;;;16.38;48.09
26823;BME280;14852;51.910;8.878;2023-05-24T10:14:36;100454.38;;;16.39;47.90
26823;BME280;14852;51.910;8.878;2023-05-24T10:17:06;100456.28;;;16.37;48.26
26823;BME280;14852;51.910;8.878;2023-05-24T10:19:33;100457.00;;;16.39;48.63
26823;BME280;14852;51.910;8.878;2023-05-24T10:22:00;100456.53;;;16.46;48.37
26823;BME280;14852;51.910;8.878;2023-05-24T10:24:45;100456.94;;;16.53;48.26
26823;BME280;14852;51.910;8.878;2023-05-24T10:27:18;100456.47;;;16.60;48.05
26823;BME280;14852;51.910;8.878;2023-05-24T10:32:16;100460.09;;;16.72;48.68
26823;BME280;14852;51.910;8.878;2023-05-24T10:34:45;100457.44;;;16.85;48.34
26823;BME280;14852;51.910;8.878;2023-05-24T10:37:11;100445.53;;;16.93;48.00
26823;BME280;14852;51.910;8.878;2023-05-24T10:39:37;100458.84;;;17.03;48.20
26823;BME280;14852;51.910;8.878;2023-05-24T10:42:06;100456.13;;;17.17;48.41
26823;BME280;14852;51.910;8.878;2023-05-24T10:44:32;100457.59;;;17.34;47.74
26823;BME280;14852;51.910;8.878;2023-05-24T10:47:11;100460.09;;;17.48;47.51
26823;BME280;14852;51.910;8.878;2023-05-24T10:49:55;100457.28;;;17.51;47.47
26823;BME280;14852;51.910;8.878;2023-05-24T10:52:33;100459.81;;;17.40;47.11
26823;BME280;14852;51.910;8.878;2023-05-24T10:55:10;100459.28;;;17.22;47.85
26823;BME280;14852;51.910;8.878;2023-05-24T10:57:37;100454.66;;;17.13;48.00
26823;BME280;14852;51.910;8.878;2023-05-24T11:02:50;100457.38;;;16.99;48.52
26823;BME280;14852;51.910;8.878;2023-05-24T11:05:23;100461.69;;;17.00;48.09
26823;BME280;14852;51.910;8.878;2023-05-24T11:07:58;100455.28;;;17.04;48.23
26823;BME280;14852;51.910;8.878;2023-05-24T11:10:31;100467.16;;;17.10;48.07
26823;BME280;14852;51.910;8.878;2023-05-24T11:12:59;100462.53;;;17.13;48.03
26823;BME280;14852;51.910;8.878;2023-05-24T11:15:26;100459.81;;;17.15;48.48
26823;BME280;14852;51.910;8.878;2023-05-24T11:20:38;100468.44;;;17.17;48.21
26823;BME280;14852;51.910;8.878;2023-05-24T11:23:08;100469.16;;;17.19;48.72
26823;BME280;14852;51.910;8.878;2023-05-24T11:25:35;100470.50;;;17.24;48.60
26823;BME280;14852;51.910;8.878;2023-05-24T11:28:07;100466.31;;;17.22;48.85
26823;BME280;14852;51.910;8.878;2023-05-24T11:30:45;100467.03;;;17.24;49.01
26823;BME280;14852;51.910;8.878;2023-05-24T11:33:19;100468.84;;;17.23;48.82
26823;BME280;14852;51.910;8.878;2023-05-24T11:35:51;100467.25;;;17.21;49.12
26823;BME280;14852;51.910;8.878;2023-05-24T11:38:20;100461.06;;;17.22;49.31
26823;BME280;14852;51.910;8.878;2023-05-24T11:40:48;100468.72;;;17.25;49.06
26823;BME280;14852;51.910;8.878;2023-05-24T11:43:19;100470.22;;;17.29;49.40
26823;BME280;14852;51.910;8.878;2023-05-24T11:45:48;100472.31;;;17.24;49.29
26823;BME280;14852;51.910;8.878;2023-05-24T11:48:15;100473.78;;;17.15;49.59
26823;BME280;14852;51.910;8.878;2023-05-24T11:50:44;100474.19;;;17.09;49.43
26823;BME280;14852;51.910;8.878;2023-05-24T11:53:17;100471.44;;;16.98;49.89
26823;BME280;14852;51.910;8.878;2023-05-24T11:55:43;100475.97;;;16.83;50.01
26823;BME280;14852;51.910;8.878;2023-05-24T11:58:45;100469.13;;;16.81;49.82
26823;BME280;14852;51.910;8.878;2023-05-24T12:01:25;100467.84;;;16.86;49.54
26823;BME280;14852;51.910;8.878;2023-05-24T12:03:52;100455.66;;;16.85;50.06
26823;BME280;14852;51.910;8.878;2023-05-24T12:06:19;100453.88;;;16.86;50.33
26823;BME280;14852;51.910;8.878;2023-05-24T12:08:47;100455.91;;;16.95;50.20
26823;BME280;14852;51.910;8.878;2023-05-24T12:11:15;100457.69;;;17.20;49.85
26823;BME280;14852;51.910;8.878;2023-05-24T12:13:42;100453.69;;;17.52;49.55
26823;BME280;14852;51.910;8.878;2023-05-24T12:16:10;100454.91;;;17.85;48.97
26823;BME280;14852;51.910;8.878;2023-05-24T12:18:37;100454.03;;;17.97;48.90
26823;BME280;14852;51.910;8.878;2023-05-24T12:21:08;100456.72;;;18.08;48.54
26823;BME280;14852;51.910;8.878;2023-05-24T12:23:34;100446.69;;;18.13;48.97
26823;BME280;14852;51.910;8.878;2023-05-24T12:26:03;100452.75;;;18.26;48.28
26823;BME280;14852;51.910;8.878;2023-05-24T12:28:36;100452.75;;;18.50;48.35
26823;BME280;14852;51.910;8.878;2023-05-24T12:31:04;100443.88;;;18.75;47.90
26823;BME280;14852;51.910;8.878;2023-05-24T12:33:30;100438.91;;;19.05;47.44
26823;BME280;14852;51.910;8.878;2023-05-24T12:35:57;100435.00;;;19.33;47.32
26823;BME280;14852;51.910;8.878;2023-05-24T12:38:24;100436.91;;;19.65;46.62
26823;BME280;14852;51.910;8.878;2023-05-24T12:40:51;100437.38;;;19.92;46.37
26823;BME280;14852;51.910;8.878;2023-05-24T12:43:19;100438.63;;;20.09;46.09
26823;BME280;14852;51.910;8.878;2023-05-24T12:45:46;100442.72;;;20.02;45.93
26823;BME280;14852;51.910;8.878;2023-05-24T12:48:12;100448.88;;;19.91;46.45
26823;BME280;14852;51.910;8.878;2023-05-24T12:50:37;100447.56;;;19.74;46.41
26823;BME280;14852;51.910;8.878;2023-05-24T12:53:03;100441.34;;;19.53;46.48
26823;BME280;14852;51.910;8.878;2023-05-24T12:55:29;100449.97;;;19.22;46.88
26823;BME280;14852;51.910;8.878;2023-05-24T12:57:56;100440.22;;;18.89;48.11
26823;BME280;14852;51.910;8.878;2023-05-24T13:00:24;100446.84;;;18.70;48.33
26823;BME280;14852;51.910;8.878;2023-05-24T13:02:56;100439.03;;;18.58;48.21
26823;BME280;14852;51.910;8.878;2023-05-24T13:05:27;100454.75;;;18.46;48.50
26823;BME280;14852;51.910;8.878;2023-05-24T13:07:54;100455.53;;;18.36;48.47
26823;BME280;14852;51.910;8.878;2023-05-24T13:10:22;100456.44;;;18.24;48.71
26823;BME280;14852;51.910;8.878;2023-05-24T13:12:48;100457.31;;;18.12;48.66
26823;BME280;14852;51.910;8.878;2023-05-24T13:15:14;100458.84;;;18.03;48.66
26823;BME280;14852;51.910;8.878;2023-05-24T13:17:40;100462.97;;;17.94;48.72
26823;BME280;14852;51.910;8.878;2023-05-24T13:20:07;100466.16;;;17.87;48.95
26823;BME280;14852;51.910;8.878;2023-05-24T13:22:37;100461.31;;;17.81;49.15
26823;BME280;14852;51.910;8.878;2023-05-24T13:25:05;100463.56;;;17.74;49.38